TimeCST,TemperatureF,Dew PointF,Humidity,Sea Level PressureIn,VisibilityMPH,Wind Direction,Wind SpeedMPH,Gust SpeedMPH,PrecipitationIn,Events,Conditions,WindDirDegrees,DateUTC
12:15 AM,44.6,32.0,61,30.35,10.0,ENE,9.2,16.1,N/A,,Clear,70,2013-01-10 06:15:00
12:35 AM,44.6,32.0,61,30.35,10.0,East,9.2,16.1,N/A,,Clear,80,2013-01-10 06:35:00
12:55 AM,44.6,32.0,61,30.34,10.0,East,10.4,-,N/A,,Mostly Cloudy,80,2013-01-10 06:55:00
2:15 AM,44.6,32.0,61,30.31,10.0,East,11.5,18.4,N/A,,Overcast,80,2013-01-10 08:15:00
2:35 AM,44.6,32.0,61,30.31,10.0,East,15.0,20.7,N/A,,Light Drizzle,80,2013-01-10 08:35:00
2:55 AM,44.6,33.8,66,30.31,10.0,East,11.5,-,N/A,,Drizzle,80,2013-01-10 08:55:00
3:15 AM,44.6,33.8,66,30.29,10.0,East,12.7,-,N/A,,Drizzle,80,2013-01-10 09:15:00
3:35 AM,42.8,35.6,76,30.28,10.0,East,9.2,16.1,N/A,Rain,Light Rain,80,2013-01-10 09:35:00
3:55 AM,41.0,37.4,87,30.26,10.0,ENE,9.2,-,0.01,Rain,Light Rain,70,2013-01-10 09:55:00
4:15 AM,41.0,37.4,87,30.24,10.0,ENE,11.5,17.3,N/A,Rain,Light Rain,70,2013-01-10 10:15:00
4:35 AM,41.0,41.0,100,30.24,10.0,East,12.7,-,0.01,Rain,Light Rain,90,2013-01-10 10:35:00
4:55 AM,39.2,39.2,100,30.23,7.0,ENE,10.4,16.1,0.03,Rain,Light Rain,70,2013-01-10 10:55:00
5:15 AM,39.2,39.2,100,30.21,5.0,East,10.4,17.3,0.01,Rain,Light Rain,80,2013-01-10 11:15:00
5:35 AM,39.2,39.2,100,30.20,4.0,East,12.7,19.6,0.03,Rain,Heavy Rain,80,2013-01-10 11:35:00
5:55 AM,39.2,39.2,100,30.20,5.0,East,10.4,17.3,0.03,,Drizzle,80,2013-01-10 11:55:00
6:35 AM,39.2,39.2,100,30.19,7.0,East,11.5,16.1,N/A,Rain,Rain,80,2013-01-10 12:35:00
6:55 AM,39.2,39.2,100,30.19,10.0,East,8.1,-,N/A,,Overcast,80,2013-01-10 12:55:00
7:35 AM,39.2,39.2,100,30.18,10.0,East,9.2,-,N/A,,Overcast,80,2013-01-10 13:35:00
7:55 AM,39.2,39.2,100,30.18,10.0,East,10.4,-,N/A,,Overcast,90,2013-01-10 13:55:00
8:15 AM,39.2,39.2,100,30.16,10.0,East,10.4,-,N/A,,Overcast,80,2013-01-10 14:15:00
8:35 AM,41.0,41.0,100,30.16,10.0,East,11.5,-,N/A,,Overcast,90,2013-01-10 14:35:00
9:15 AM,41.0,41.0,100,30.13,7.0,East,10.4,-,N/A,,Overcast,80,2013-01-10 15:15:00
9:35 AM,41.0,41.0,100,30.12,4.0,East,11.5,-,N/A,,Overcast,90,2013-01-10 15:35:00
10:15 AM,42.8,42.8,100,30.10,2.5,East,10.4,-,N/A,,Overcast,100,2013-01-10 16:15:00
10:35 AM,42.8,42.8,100,30.07,2.5,East,10.4,-,N/A,,Overcast,90,2013-01-10 16:35:00
10:55 AM,42.8,42.8,100,30.07,2.5,ESE,9.2,-,N/A,,Overcast,110,2013-01-10 16:55:00
11:15 AM,44.6,44.6,100,30.05,3.0,East,8.1,-,N/A,,Overcast,100,2013-01-10 17:15:00
11:35 AM,44.6,44.6,100,30.04,3.0,ESE,10.4,-,N/A,,Overcast,110,2013-01-10 17:35:00
11:55 AM,44.6,44.6,100,30.00,3.0,East,9.2,-,N/A,,Overcast,90,2013-01-10 17:55:00
12:15 PM,46.4,46.4,100,29.98,7.0,East,10.4,-,N/A,,Overcast,100,2013-01-10 18:15:00
12:35 PM,50.0,50.0,100,29.96,10.0,ESE,13.8,18.4,N/A,,Overcast,110,2013-01-10 18:35:00
12:55 PM,50.0,50.0,100,29.96,10.0,ESE,13.8,18.4,N/A,,Overcast,110,2013-01-10 18:55:00
1:15 PM,50.0,50.0,100,29.95,10.0,ESE,13.8,-,N/A,,Overcast,120,2013-01-10 19:15:00
1:35 PM,51.8,51.8,100,29.93,10.0,ESE,13.8,-,N/A,,Overcast,120,2013-01-10 19:35:00
1:55 PM,51.8,51.8,100,29.93,10.0,ESE,10.4,-,N/A,,Overcast,110,2013-01-10 19:55:00
2:15 PM,53.6,53.6,100,29.91,10.0,ESE,10.4,-,N/A,,Overcast,110,2013-01-10 20:15:00
2:35 PM,53.6,53.6,100,29.91,10.0,ESE,11.5,-,N/A,,Overcast,110,2013-01-10 20:35:00
2:55 PM,53.6,53.6,100,29.90,10.0,East,9.2,-,N/A,,Overcast,100,2013-01-10 20:55:00
3:15 PM,53.6,53.6,100,29.90,10.0,East,8.1,-,N/A,,Overcast,100,2013-01-10 21:15:00
3:35 PM,51.8,51.8,100,29.91,10.0,ESE,8.1,-,N/A,,Overcast,120,2013-01-10 21:35:00
3:55 PM,51.8,51.8,100,29.91,7.0,SE,8.1,-,N/A,,Overcast,130,2013-01-10 21:55:00
4:15 PM,51.8,51.8,100,29.90,2.5,ESE,8.1,-,N/A,,Overcast,110,2013-01-10 22:15:00
4:35 PM,51.8,51.8,100,29.90,3.0,East,6.9,-,N/A,,Drizzle,90,2013-01-10 22:35:00
4:55 PM,51.8,51.8,100,29.90,4.0,East,8.1,-,N/A,,Overcast,90,2013-01-10 22:55:00
5:15 PM,51.8,51.8,100,29.89,4.0,East,5.8,-,N/A,,Overcast,100,2013-01-10 23:15:00
5:35 PM,50.0,50.0,100,29.88,5.0,East,6.9,-,N/A,,Overcast,90,2013-01-10 23:35:00
5:55 PM,50.0,50.0,100,29.87,4.0,East,9.2,-,N/A,,Overcast,80,2013-01-10 23:55:00
6:15 PM,50.0,50.0,100,29.85,10.0,East,8.1,-,N/A,,Overcast,90,2013-01-11 00:15:00
6:35 PM,50.0,50.0,100,29.84,10.0,East,8.1,-,N/A,,Overcast,90,2013-01-11 00:35:00
6:55 PM,50.0,50.0,100,29.84,7.0,East,6.9,-,N/A,,Overcast,90,2013-01-11 00:55:00
7:15 PM,50.0,50.0,100,29.83,7.0,East,5.8,-,N/A,,Overcast,100,2013-01-11 01:15:00
7:35 PM,50.0,50.0,100,29.83,7.0,East,4.6,-,N/A,Rain,Light Rain,100,2013-01-11 01:35:00
7:55 PM,50.0,50.0,100,29.87,3.0,SW,9.2,28.8,0.03,Rain,Rain,230,2013-01-11 01:55:00
8:15 PM,51.8,51.8,100,29.86,10.0,SSW,5.8,-,N/A,Rain,Light Rain,210,2013-01-11 02:15:00
8:35 PM,51.8,51.8,100,29.85,10.0,SW,5.8,-,0.02,Rain,Light Rain,220,2013-01-11 02:35:00
8:55 PM,51.8,51.8,100,29.83,10.0,SW,4.6,-,0.03,Rain,Light Rain,230,2013-01-11 02:55:00
9:15 PM,50.0,50.0,100,29.80,10.0,Calm,Calm,-,N/A,Rain,Light Rain,0,2013-01-11 03:15:00
9:35 PM,50.0,50.0,100,29.82,10.0,SE,4.6,-,N/A,,Mostly Cloudy,130,2013-01-11 03:35:00
9:55 PM,50.0,50.0,100,29.81,10.0,South,3.5,-,N/A,,Mostly Cloudy,170,2013-01-11 03:55:00
10:15 PM,50.0,50.0,100,29.82,10.0,SSE,5.8,-,N/A,,Scattered Clouds,160,2013-01-11 04:15:00
10:35 PM,50.0,50.0,100,29.82,10.0,SSE,6.9,-,N/A,,Overcast,160,2013-01-11 04:35:00
11:15 PM,50.0,50.0,100,29.81,10.0,South,9.2,-,N/A,,Scattered Clouds,170,2013-01-11 05:15:00
11:35 PM,50.0,50.0,100,29.81,10.0,South,9.2,-,N/A,,Clear,180,2013-01-11 05:35:00
11:55 PM,50.0,50.0,100,29.80,10.0,South,10.4,-,N/A,,Clear,190,2013-01-11 05:55:00